UTY7243 YBWP-YBCS
Flight info
| Callsign | UTY7243 |
|---|---|
| Flight time | 0h 52m |
| Altitude | 39000 |
| Route | MEMOS B473 OVLET |
| Aircraft | E190/M-SDGHIRWYZ/EB1 |
Departure
| Time | 2026-05-07 00:00 |
|---|---|
| Airport | Weipa Airport (YBWP) |
Arrival
| Time | 2026-05-07 00:53 |
|---|---|
| Airport | Cairns International Airport (YBCS) |
| Time | Latitude | Longitude | Altitude | Speed | Heading |
|---|---|---|---|---|---|
| 2026-05-06 23:44 | -12.67983 | 141.92352 | 65 ft | 0 kts | 203° |
| 2026-05-06 23:56 | -12.67986 | 141.92351 | 67 ft | 2 kts | 198° |
| 2026-05-06 23:57 | -12.68001 | 141.92363 | 61 ft | 3 kts | 113° |
| 2026-05-06 23:57 | -12.67996 | 141.92395 | 69 ft | 6 kts | 78° |
| 2026-05-06 23:57 | -12.67974 | 141.92452 | 63 ft | 11 kts | 58° |
| 2026-05-06 23:57 | -12.67894 | 141.92470 | 67 ft | 16 kts | 318° |
| 2026-05-06 23:58 | -12.67813 | 141.92351 | 66 ft | 24 kts | 303° |
| 2026-05-06 23:58 | -12.67711 | 141.92197 | 68 ft | 29 kts | 304° |
| 2026-05-06 23:58 | -12.67590 | 141.92014 | 70 ft | 32 kts | 304° |
| 2026-05-06 23:58 | -12.67466 | 141.91829 | 64 ft | 33 kts | 304° |
| 2026-05-06 23:59 | -12.67371 | 141.91680 | 70 ft | 17 kts | 294° |
| 2026-05-06 23:59 | -12.67343 | 141.91628 | 69 ft | 2 kts | 13° |
| 2026-05-06 23:59 | -12.67342 | 141.91646 | 69 ft | 3 kts | 108° |
| 2026-05-06 23:59 | -12.67395 | 141.91723 | 72 ft | 41 kts | 124° |
| 2026-05-07 00:00 | -12.67689 | 141.92165 | 64 ft | 107 kts | 124° |
| 2026-05-07 00:00 | -12.68193 | 141.92935 | 202 ft | 144 kts | 123° |
| 2026-05-07 00:00 | -12.68745 | 141.93801 | 853 ft | 152 kts | 125° |
| 2026-05-07 00:00 | -12.69509 | 141.94615 | 1232 ft | 167 kts | 139° |
| 2026-05-07 00:01 | -12.70470 | 141.95397 | 1724 ft | 183 kts | 136° |
| 2026-05-07 00:01 | -12.71440 | 141.96247 | 2479 ft | 184 kts | 137° |
| 2026-05-07 00:01 | -12.72428 | 141.97105 | 3155 ft | 195 kts | 138° |
| 2026-05-07 00:01 | -12.73546 | 141.98083 | 3422 ft | 223 kts | 139° |
| 2026-05-07 00:02 | -12.74775 | 141.99173 | 3945 ft | 243 kts | 139° |
| 2026-05-07 00:02 | -12.76107 | 142.00356 | 4599 ft | 261 kts | 138° |
| 2026-05-07 00:02 | -12.77505 | 142.01597 | 5453 ft | 269 kts | 138° |
| 2026-05-07 00:02 | -12.78933 | 142.02873 | 6325 ft | 275 kts | 137° |
| 2026-05-07 00:03 | -12.80369 | 142.04157 | 7152 ft | 280 kts | 137° |
| 2026-05-07 00:03 | -12.81844 | 142.05474 | 8004 ft | 284 kts | 138° |
| 2026-05-07 00:03 | -12.83349 | 142.06818 | 8798 ft | 289 kts | 137° |
| 2026-05-07 00:03 | -12.84888 | 142.08193 | 9553 ft | 296 kts | 137° |
| 2026-05-07 00:04 | -12.86463 | 142.09602 | 10252 ft | 305 kts | 137° |
| 2026-05-07 00:04 | -12.88117 | 142.11079 | 10584 ft | 324 kts | 137° |
| 2026-05-07 00:04 | -12.89831 | 142.12611 | 11053 ft | 336 kts | 138° |
| 2026-05-07 00:04 | -12.91630 | 142.14217 | 11510 ft | 349 kts | 138° |
| 2026-05-07 00:05 | -12.93486 | 142.15874 | 12062 ft | 356 kts | 138° |
| 2026-05-07 00:05 | -12.95374 | 142.17560 | 12677 ft | 362 kts | 138° |
| 2026-05-07 00:05 | -12.97285 | 142.19268 | 13348 ft | 366 kts | 137° |
| 2026-05-07 00:05 | -12.99221 | 142.20997 | 13969 ft | 369 kts | 137° |
| 2026-05-07 00:06 | -13.01180 | 142.22748 | 14525 ft | 376 kts | 137° |
| 2026-05-07 00:06 | -13.03145 | 142.24506 | 15105 ft | 380 kts | 138° |
| 2026-05-07 00:06 | -13.05156 | 142.26308 | 15765 ft | 383 kts | 138° |
| 2026-05-07 00:06 | -13.07178 | 142.28116 | 16336 ft | 387 kts | 139° |
| 2026-05-07 00:07 | -13.09236 | 142.29954 | 16798 ft | 394 kts | 139° |
| 2026-05-07 00:07 | -13.11311 | 142.31811 | 17384 ft | 396 kts | 139° |
| 2026-05-07 00:07 | -13.13379 | 142.33660 | 17846 ft | 401 kts | 139° |
| 2026-05-07 00:07 | -13.15495 | 142.35555 | 18326 ft | 405 kts | 139° |
| 2026-05-07 00:08 | -13.17633 | 142.37467 | 18777 ft | 407 kts | 139° |
| 2026-05-07 00:08 | -13.19777 | 142.39388 | 19198 ft | 410 kts | 139° |
| 2026-05-07 00:08 | -13.21933 | 142.41317 | 19620 ft | 412 kts | 139° |
| 2026-05-07 00:08 | -13.24107 | 142.43263 | 20064 ft | 414 kts | 139° |
| 2026-05-07 00:09 | -13.26289 | 142.45219 | 20455 ft | 417 kts | 139° |
| 2026-05-07 00:09 | -13.28483 | 142.47184 | 20872 ft | 419 kts | 139° |
| 2026-05-07 00:09 | -13.30686 | 142.49158 | 21260 ft | 422 kts | 139° |
| 2026-05-07 00:09 | -13.32885 | 142.51127 | 21588 ft | 426 kts | 139° |
| 2026-05-07 00:10 | -13.35119 | 142.53130 | 21943 ft | 428 kts | 139° |
| 2026-05-07 00:10 | -13.37372 | 142.55150 | 22359 ft | 428 kts | 139° |
| 2026-05-07 00:10 | -13.39610 | 142.57156 | 22702 ft | 431 kts | 139° |
| 2026-05-07 00:10 | -13.41878 | 142.59189 | 23048 ft | 433 kts | 139° |
| 2026-05-07 00:11 | -13.44157 | 142.61234 | 23354 ft | 435 kts | 139° |
| 2026-05-07 00:11 | -13.46448 | 142.63290 | 23651 ft | 437 kts | 139° |
| 2026-05-07 00:11 | -13.48720 | 142.65328 | 23882 ft | 440 kts | 139° |
| 2026-05-07 00:11 | -13.51039 | 142.67410 | 24121 ft | 442 kts | 139° |
| 2026-05-07 00:12 | -13.53365 | 142.69498 | 24352 ft | 444 kts | 139° |
| 2026-05-07 00:12 | -13.55698 | 142.71593 | 24578 ft | 446 kts | 139° |
| 2026-05-07 00:12 | -13.58041 | 142.73696 | 24798 ft | 448 kts | 139° |
| 2026-05-07 00:12 | -13.60367 | 142.75787 | 25010 ft | 450 kts | 139° |
| 2026-05-07 00:13 | -13.62736 | 142.77914 | 25211 ft | 453 kts | 140° |
| 2026-05-07 00:13 | -13.65114 | 142.80052 | 25418 ft | 454 kts | 140° |
| 2026-05-07 00:13 | -13.67501 | 142.82198 | 25622 ft | 457 kts | 140° |
| 2026-05-07 00:13 | -13.69900 | 142.84355 | 25829 ft | 458 kts | 140° |
| 2026-05-07 00:14 | -13.72308 | 142.86522 | 26034 ft | 460 kts | 140° |
| 2026-05-07 00:14 | -13.74728 | 142.88699 | 26214 ft | 463 kts | 140° |
| 2026-05-07 00:14 | -13.77133 | 142.90863 | 26387 ft | 465 kts | 140° |
| 2026-05-07 00:14 | -13.79581 | 142.93066 | 26581 ft | 467 kts | 140° |
| 2026-05-07 00:15 | -13.82029 | 142.95271 | 26768 ft | 469 kts | 140° |
| 2026-05-07 00:15 | -13.84492 | 142.97489 | 26968 ft | 471 kts | 140° |
| 2026-05-07 00:15 | -13.86965 | 142.99716 | 27152 ft | 472 kts | 140° |
| 2026-05-07 00:15 | -13.89413 | 143.01923 | 27330 ft | 474 kts | 140° |
| 2026-05-07 00:16 | -13.91903 | 143.04167 | 27511 ft | 476 kts | 140° |
| 2026-05-07 00:16 | -13.94401 | 143.06419 | 27693 ft | 478 kts | 140° |
| 2026-05-07 00:16 | -13.96910 | 143.08682 | 27871 ft | 479 kts | 140° |
| 2026-05-07 00:16 | -13.99427 | 143.10952 | 28041 ft | 481 kts | 140° |
| 2026-05-07 00:17 | -14.01951 | 143.13230 | 28200 ft | 483 kts | 140° |
| 2026-05-07 00:17 | -14.04460 | 143.15494 | 28362 ft | 485 kts | 140° |
| 2026-05-07 00:17 | -14.07004 | 143.17792 | 28533 ft | 486 kts | 140° |
| 2026-05-07 00:17 | -14.09559 | 143.20099 | 28651 ft | 489 kts | 140° |
| 2026-05-07 00:18 | -14.12126 | 143.22419 | 28796 ft | 491 kts | 140° |
| 2026-05-07 00:18 | -14.14699 | 143.24744 | 28947 ft | 492 kts | 140° |
| 2026-05-07 00:18 | -14.17277 | 143.27073 | 29162 ft | 492 kts | 140° |
| 2026-05-07 00:18 | -14.19818 | 143.29373 | 29369 ft | 492 kts | 140° |
| 2026-05-07 00:19 | -14.22396 | 143.31704 | 29583 ft | 492 kts | 140° |
| 2026-05-07 00:19 | -14.24971 | 143.34033 | 29798 ft | 492 kts | 140° |
| 2026-05-07 00:19 | -14.27550 | 143.36368 | 30015 ft | 492 kts | 140° |
| 2026-05-07 00:19 | -14.30124 | 143.38697 | 30227 ft | 491 kts | 140° |
| 2026-05-07 00:20 | -14.32694 | 143.41025 | 30401 ft | 491 kts | 140° |
| 2026-05-07 00:20 | -14.35262 | 143.43352 | 30608 ft | 491 kts | 140° |
| 2026-05-07 00:20 | -14.37830 | 143.45677 | 30805 ft | 490 kts | 140° |
| 2026-05-07 00:20 | -14.40390 | 143.47998 | 31015 ft | 489 kts | 140° |
| 2026-05-07 00:21 | -14.42919 | 143.50291 | 31200 ft | 489 kts | 141° |
| 2026-05-07 00:21 | -14.45483 | 143.52615 | 31337 ft | 490 kts | 141° |
| 2026-05-07 00:21 | -14.48046 | 143.54941 | 31519 ft | 490 kts | 141° |
| 2026-05-07 00:21 | -14.50604 | 143.57262 | 31711 ft | 489 kts | 141° |
| 2026-05-07 00:22 | -14.53160 | 143.59582 | 31912 ft | 488 kts | 141° |
| 2026-05-07 00:22 | -14.55716 | 143.61904 | 32104 ft | 488 kts | 141° |
| 2026-05-07 00:22 | -14.58236 | 143.64192 | 32304 ft | 487 kts | 141° |
| 2026-05-07 00:22 | -14.60783 | 143.66507 | 32481 ft | 487 kts | 141° |
| 2026-05-07 00:23 | -14.63330 | 143.68820 | 32654 ft | 486 kts | 141° |
| 2026-05-07 00:23 | -14.65870 | 143.71129 | 32848 ft | 486 kts | 141° |
| 2026-05-07 00:23 | -14.68408 | 143.73438 | 33075 ft | 484 kts | 141° |
| 2026-05-07 00:23 | -14.70921 | 143.75722 | 33054 ft | 489 kts | 141° |
| 2026-05-07 00:24 | -14.76067 | 143.80405 | 33070 ft | 496 kts | 141° |
| 2026-05-07 00:24 | -14.81281 | 143.85153 | 33096 ft | 502 kts | 141° |
| 2026-05-07 00:25 | -14.86561 | 143.89965 | 33000 ft | 507 kts | 141° |
| 2026-05-07 00:25 | -14.91844 | 143.94783 | 33002 ft | 508 kts | 141° |
| 2026-05-07 00:26 | -14.97142 | 143.99618 | 32998 ft | 509 kts | 141° |
| 2026-05-07 00:26 | -15.02453 | 144.04493 | 33003 ft | 510 kts | 141° |
| 2026-05-07 00:27 | -15.07757 | 144.09374 | 32993 ft | 510 kts | 141° |
| 2026-05-07 00:27 | -15.13030 | 144.14230 | 32999 ft | 511 kts | 141° |
| 2026-05-07 00:28 | -15.18355 | 144.19136 | 32997 ft | 511 kts | 141° |
| 2026-05-07 00:28 | -15.23670 | 144.24039 | 33000 ft | 511 kts | 141° |
| 2026-05-07 00:29 | -15.28953 | 144.28913 | 32996 ft | 511 kts | 141° |
| 2026-05-07 00:30 | -15.39573 | 144.38719 | 33005 ft | 511 kts | 141° |
| 2026-05-07 00:30 | -15.43990 | 144.42803 | 33006 ft | 511 kts | 141° |
| 2026-05-07 00:31 | -15.50174 | 144.48525 | 33006 ft | 513 kts | 141° |
| 2026-05-07 00:31 | -15.54602 | 144.52624 | 33005 ft | 513 kts | 141° |
| 2026-05-07 00:32 | -15.59924 | 144.57554 | 32705 ft | 511 kts | 141° |
| 2026-05-07 00:32 | -15.62547 | 144.59987 | 32376 ft | 501 kts | 141° |
| 2026-05-07 00:32 | -15.65143 | 144.62394 | 31607 ft | 502 kts | 141° |
| 2026-05-07 00:33 | -15.68581 | 144.65582 | 30746 ft | 498 kts | 140° |
| 2026-05-07 00:33 | -15.70327 | 144.67202 | 30292 ft | 498 kts | 140° |
| 2026-05-07 00:33 | -15.72911 | 144.69600 | 29568 ft | 497 kts | 140° |
| 2026-05-07 00:33 | -15.75446 | 144.71954 | 28977 ft | 493 kts | 140° |
| 2026-05-07 00:34 | -15.78009 | 144.74334 | 28296 ft | 491 kts | 140° |
| 2026-05-07 00:34 | -15.80542 | 144.76689 | 27649 ft | 487 kts | 140° |
| 2026-05-07 00:34 | -15.83050 | 144.79021 | 27006 ft | 482 kts | 140° |
| 2026-05-07 00:34 | -15.85525 | 144.81338 | 26380 ft | 475 kts | 140° |
| 2026-05-07 00:35 | -15.87993 | 144.83627 | 25742 ft | 469 kts | 140° |
| 2026-05-07 00:35 | -15.90387 | 144.85853 | 25140 ft | 463 kts | 139° |
| 2026-05-07 00:35 | -15.92775 | 144.88072 | 24527 ft | 457 kts | 139° |
| 2026-05-07 00:35 | -15.95125 | 144.90258 | 23921 ft | 451 kts | 139° |
| 2026-05-07 00:36 | -15.97450 | 144.92422 | 23283 ft | 444 kts | 139° |
| 2026-05-07 00:36 | -15.99728 | 144.94544 | 22739 ft | 435 kts | 139° |
| 2026-05-07 00:36 | -16.01971 | 144.96632 | 22157 ft | 430 kts | 139° |
| 2026-05-07 00:36 | -16.04189 | 144.98700 | 21597 ft | 426 kts | 139° |
| 2026-05-07 00:37 | -16.06369 | 145.00733 | 21042 ft | 423 kts | 139° |
| 2026-05-07 00:37 | -16.08557 | 145.02773 | 20481 ft | 422 kts | 139° |
| 2026-05-07 00:37 | -16.10744 | 145.04815 | 19918 ft | 420 kts | 139° |
| 2026-05-07 00:37 | -16.12882 | 145.06810 | 19371 ft | 417 kts | 138° |
| 2026-05-07 00:38 | -16.15032 | 145.08818 | 18816 ft | 414 kts | 138° |
| 2026-05-07 00:38 | -16.17172 | 145.10816 | 18256 ft | 411 kts | 138° |
| 2026-05-07 00:38 | -16.19292 | 145.12792 | 17702 ft | 405 kts | 138° |
| 2026-05-07 00:38 | -16.21382 | 145.14750 | 17168 ft | 401 kts | 138° |
| 2026-05-07 00:39 | -16.23408 | 145.16673 | 16668 ft | 397 kts | 135° |
| 2026-05-07 00:39 | -16.25124 | 145.18905 | 16152 ft | 393 kts | 124° |
| 2026-05-07 00:39 | -16.26714 | 145.21215 | 15612 ft | 391 kts | 126° |
| 2026-05-07 00:39 | -16.28323 | 145.23490 | 15100 ft | 389 kts | 126° |
| 2026-05-07 00:40 | -16.29926 | 145.25743 | 14583 ft | 384 kts | 126° |
| 2026-05-07 00:40 | -16.31490 | 145.27930 | 14089 ft | 377 kts | 126° |
| 2026-05-07 00:40 | -16.33047 | 145.30102 | 13562 ft | 370 kts | 126° |
| 2026-05-07 00:40 | -16.34575 | 145.32225 | 13107 ft | 362 kts | 126° |
| 2026-05-07 00:41 | -16.36064 | 145.34293 | 12580 ft | 348 kts | 126° |
| 2026-05-07 00:41 | -16.37501 | 145.36286 | 12096 ft | 342 kts | 127° |
| 2026-05-07 00:41 | -16.38922 | 145.38255 | 11414 ft | 336 kts | 127° |
| 2026-05-07 00:41 | -16.40303 | 145.40169 | 10759 ft | 324 kts | 127° |
| 2026-05-07 00:42 | -16.41637 | 145.42020 | 10145 ft | 314 kts | 128° |
| 2026-05-07 00:42 | -16.42921 | 145.43797 | 9537 ft | 305 kts | 127° |
| 2026-05-07 00:42 | -16.44179 | 145.45540 | 8928 ft | 296 kts | 127° |
| 2026-05-07 00:42 | -16.45398 | 145.47226 | 8352 ft | 287 kts | 127° |
| 2026-05-07 00:43 | -16.46586 | 145.48869 | 7866 ft | 279 kts | 126° |
| 2026-05-07 00:43 | -16.47751 | 145.50482 | 7570 ft | 276 kts | 126° |
| 2026-05-07 00:43 | -16.48901 | 145.52078 | 7311 ft | 273 kts | 126° |
| 2026-05-07 00:43 | -16.50031 | 145.53642 | 7081 ft | 271 kts | 126° |
| 2026-05-07 00:44 | -16.51160 | 145.55208 | 6844 ft | 270 kts | 126° |
| 2026-05-07 00:44 | -16.52287 | 145.56767 | 6551 ft | 267 kts | 126° |
| 2026-05-07 00:44 | -16.53380 | 145.58280 | 6234 ft | 261 kts | 126° |
| 2026-05-07 00:44 | -16.54492 | 145.59738 | 5895 ft | 254 kts | 136° |
| 2026-05-07 00:45 | -16.56024 | 145.60600 | 5597 ft | 248 kts | 159° |
| 2026-05-07 00:45 | -16.57604 | 145.61134 | 5401 ft | 231 kts | 155° |
| 2026-05-07 00:45 | -16.59020 | 145.61827 | 5179 ft | 226 kts | 151° |
| 2026-05-07 00:45 | -16.60435 | 145.62504 | 4935 ft | 221 kts | 154° |
| 2026-05-07 00:46 | -16.61844 | 145.63121 | 4674 ft | 216 kts | 154° |
| 2026-05-07 00:46 | -16.63204 | 145.63719 | 4392 ft | 208 kts | 154° |
| 2026-05-07 00:46 | -16.64501 | 145.64317 | 4119 ft | 200 kts | 153° |
| 2026-05-07 00:46 | -16.65721 | 145.64876 | 4097 ft | 182 kts | 153° |
| 2026-05-07 00:47 | -16.66865 | 145.65391 | 4060 ft | 176 kts | 153° |
| 2026-05-07 00:47 | -16.68013 | 145.65913 | 3877 ft | 183 kts | 153° |
| 2026-05-07 00:47 | -16.69175 | 145.66441 | 3650 ft | 180 kts | 154° |
| 2026-05-07 00:47 | -16.70287 | 145.66944 | 3414 ft | 169 kts | 154° |
| 2026-05-07 00:48 | -16.71318 | 145.67413 | 3189 ft | 159 kts | 154° |
| 2026-05-07 00:48 | -16.72301 | 145.67860 | 2974 ft | 150 kts | 154° |
| 2026-05-07 00:48 | -16.73237 | 145.68284 | 2782 ft | 144 kts | 154° |
| 2026-05-07 00:48 | -16.74153 | 145.68700 | 2605 ft | 142 kts | 153° |
| 2026-05-07 00:49 | -16.75059 | 145.69112 | 2427 ft | 141 kts | 155° |
| 2026-05-07 00:49 | -16.75932 | 145.69508 | 2237 ft | 137 kts | 155° |
| 2026-05-07 00:49 | -16.76807 | 145.69905 | 2069 ft | 139 kts | 155° |
| 2026-05-07 00:49 | -16.77688 | 145.70305 | 1888 ft | 135 kts | 153° |
| 2026-05-07 00:50 | -16.78536 | 145.70691 | 1705 ft | 131 kts | 153° |
| 2026-05-07 00:50 | -16.79358 | 145.71065 | 1539 ft | 127 kts | 153° |
| 2026-05-07 00:50 | -16.80166 | 145.71433 | 1380 ft | 128 kts | 155° |
| 2026-05-07 00:50 | -16.80981 | 145.71801 | 1207 ft | 128 kts | 155° |
| 2026-05-07 00:51 | -16.81779 | 145.72187 | 1037 ft | 124 kts | 155° |
| 2026-05-07 00:51 | -16.82562 | 145.72540 | 861 ft | 121 kts | 158° |
| 2026-05-07 00:51 | -16.83343 | 145.72871 | 767 ft | 121 kts | 155° |
| 2026-05-07 00:51 | -16.84139 | 145.73244 | 622 ft | 126 kts | 156° |
| 2026-05-07 00:52 | -16.84941 | 145.73609 | 388 ft | 123 kts | 155° |
| 2026-05-07 00:52 | -16.85713 | 145.73961 | 239 ft | 121 kts | 156° |
| 2026-05-07 00:52 | -16.86505 | 145.74323 | 45 ft | 127 kts | 156° |
| 2026-05-07 00:52 | -16.87273 | 145.74668 | -5 ft | 101 kts | 159° |
| 2026-05-07 00:53 | -16.87762 | 145.74888 | 16 ft | 59 kts | 155° |
| 2026-05-07 00:53 | -16.88100 | 145.75045 | 15 ft | 41 kts | 158° |
| 2026-05-07 00:53 | -16.88283 | 145.75125 | 17 ft | 26 kts | 156° |
| 2026-05-07 00:53 | -16.88362 | 145.75207 | 16 ft | 13 kts | 79° |
| 2026-05-07 00:54 | -16.88322 | 145.75300 | 17 ft | 15 kts | 52° |
| 2026-05-07 00:54 | -16.88225 | 145.75290 | 15 ft | 16 kts | 334° |
| 2026-05-07 00:54 | -16.88120 | 145.75239 | 15 ft | 18 kts | 334° |
| 2026-05-07 00:54 | -16.88001 | 145.75187 | 15 ft | 20 kts | 336° |
| 2026-05-07 00:55 | -16.87867 | 145.75125 | 15 ft | 22 kts | 336° |
| 2026-05-07 00:55 | -16.87719 | 145.75059 | 15 ft | 24 kts | 337° |
| 2026-05-07 00:55 | -16.87554 | 145.74991 | 17 ft | 26 kts | 336° |
| 2026-05-07 00:55 | -16.87407 | 145.74975 | -7 ft | 18 kts | 24° |
| 2026-05-07 00:56 | -16.87308 | 145.75051 | -7 ft | 16 kts | 66° |
| 2026-05-07 00:56 | -16.87287 | 145.75132 | -7 ft | 8 kts | 123° |
| 2026-05-07 00:56 | -16.87339 | 145.75161 | -7 ft | 6 kts | 158° |
| 2026-05-07 00:56 | -16.87359 | 145.75169 | -5 ft | 0 kts | 156° |